Time;durP1;ratioP1;P1;durP2;ratioP2;P2;SDS_P1;SDS_P2;PMS_P1;PMS_P2;Temp;Humidity;BMP_temperature;BMP_pressure;BME280_temperature;BME280_humidity;BME280_pressure;Samples;Min_cycle;Max_cycle;Signal;HPM_P1;HPM_P2
2022/07/23 00:00:31;;;;;;;;;;;17.00;99.90;;;;;;5073778;28;19909;-81
2022/07/23 00:02:56;;;;;;;;;;;16.90;99.90;;;;;;5073957;28;20364;-77
2022/07/23 00:05:22;;;;;;;;;;;16.80;99.90;;;;;;5073739;28;19912;-78
2022/07/23 00:07:48;;;;;;;;;;;16.70;99.90;;;;;;5073655;28;20028;-80
2022/07/23 00:10:13;;;;;;;;;;;16.50;99.90;;;;;;5073661;28;19908;-79
2022/07/23 00:12:39;;;;;;;;;;;16.50;99.90;;;;;;5073603;28;19954;-81
2022/07/23 00:15:05;;;;;;;;;;;16.50;99.90;;;;;;5073478;28;20254;-78
2022/07/23 00:17:31;;;;;;;;;;;16.40;99.90;;;;;;5073533;28;19908;-79
2022/07/23 00:19:56;;;;;;;;;;;16.50;99.90;;;;;;5073503;28;19916;-78
2022/07/23 00:22:22;;;;;;;;;;;16.40;99.90;;;;;;5073527;28;19947;-79
2022/07/23 00:24:51;;;;;;;;;;;16.50;99.90;;;;;;5073827;28;19954;-80
2022/07/23 00:27:16;;;;;;;;;;;16.60;99.90;;;;;;5073457;28;20415;-82
2022/07/23 00:29:42;;;;;;;;;;;16.50;99.90;;;;;;5073440;28;19916;-78
2022/07/23 00:32:07;;;;;;;;;;;16.50;99.90;;;;;;5073705;28;20334;-80
2022/07/23 00:34:33;;;;;;;;;;;16.60;99.90;;;;;;5073294;28;19913;-79
2022/07/23 00:36:58;;;;;;;;;;;16.60;99.90;;;;;;5073644;28;20008;-79
2022/07/23 00:39:24;;;;;;;;;;;16.60;99.90;;;;;;5073334;28;20296;-79
2022/07/23 00:41:50;;;;;;;;;;;16.70;99.90;;;;;;5073194;28;19921;-78
2022/07/23 00:44:17;;;;;;;;;;;16.60;99.90;;;;;;5073573;28;20326;-80
2022/07/23 00:46:47;;;;;;;;;;;16.50;99.90;;;;;;5073385;28;19954;-81
2022/07/23 00:49:13;;;;;;;;;;;16.50;99.90;;;;;;5073195;28;19912;-78
2022/07/23 00:51:38;;;;;;;;;;;16.50;99.90;;;;;;5073253;28;19915;-80
2022/07/23 00:54:04;;;;;;;;;;;16.40;99.90;;;;;;5073134;28;19908;-79
2022/07/23 00:56:30;;;;;;;;;;;16.30;99.90;;;;;;5073401;28;19916;-79
2022/07/23 00:58:56;;;;;;;;;;;16.40;99.90;;;;;;5073284;28;19917;-77
2022/07/23 01:01:22;;;;;;;;;;;16.40;99.90;;;;;;5073229;28;19915;-79
2022/07/23 01:03:48;;;;;;;;;;;16.50;99.90;;;;;;5073099;28;19908;-78
2022/07/23 01:06:14;;;;;;;;;;;16.40;99.90;;;;;;5073614;28;19909;-78
2022/07/23 01:08:39;;;;;;;;;;;16.50;99.90;;;;;;5074641;28;19908;-81
2022/07/23 01:11:05;;;;;;;;;;;16.50;99.90;;;;;;5076865;28;19943;-80
2022/07/23 01:13:30;;;;;;;;;;;16.40;99.90;;;;;;5076771;28;19953;-80
2022/07/23 01:15:56;;;;;;;;;;;16.30;99.90;;;;;;5076625;28;19920;-79
2022/07/23 01:18:22;;;;;;;;;;;16.40;99.90;;;;;;5076761;28;19919;-78
2022/07/23 01:20:47;;;;;;;;;;;16.40;99.90;;;;;;5076643;28;20327;-78
2022/07/23 01:23:13;;;;;;;;;;;16.40;99.90;;;;;;5076607;28;19908;-78
2022/07/23 01:25:47;;;;;;;;;;;16.40;99.90;;;;;;5077119;28;19931;-79
2022/07/23 01:28:12;;;;;;;;;;;16.30;99.90;;;;;;5076631;28;19920;-79
2022/07/23 01:30:38;;;;;;;;;;;16.30;99.90;;;;;;5076553;28;19908;-78
2022/07/23 01:33:03;;;;;;;;;;;16.20;99.90;;;;;;5076593;28;19999;-80
2022/07/23 01:35:29;;;;;;;;;;;16.20;99.90;;;;;;5076305;28;19962;-82
2022/07/23 01:37:54;;;;;;;;;;;16.20;99.90;;;;;;5076465;28;19995;-79
2022/07/23 01:40:20;;;;;;;;;;;15.90;99.90;;;;;;5076348;28;19936;-79
2022/07/23 01:42:46;;;;;;;;;;;15.70;99.90;;;;;;5054586;28;20003;-80
2022/07/23 01:45:11;;;;;;;;;;;15.80;99.90;;;;;;5056259;28;19909;-82
2022/07/23 01:47:37;;;;;;;;;;;15.80;99.90;;;;;;5056276;28;19940;-79
2022/07/23 01:50:03;;;;;;;;;;;15.70;99.90;;;;;;5056211;28;20349;-79
2022/07/23 01:52:28;;;;;;;;;;;15.80;99.90;;;;;;5056104;28;19909;-78
2022/07/23 01:54:54;;;;;;;;;;;16.00;99.90;;;;;;5056122;28;19913;-80
2022/07/23 01:57:19;;;;;;;;;;;16.10;99.90;;;;;;5055984;28;19995;-77
2022/07/23 01:59:45;;;;;;;;;;;15.90;99.90;;;;;;5056013;28;19924;-81
2022/07/23 02:02:10;;;;;;;;;;;15.90;99.90;;;;;;5055923;28;19909;-78
2022/07/23 02:04:36;;;;;;;;;;;15.90;99.90;;;;;;5055914;28;20483;-77
2022/07/23 02:07:02;;;;;;;;;;;15.90;99.90;;;;;;5055770;28;20438;-80
2022/07/23 02:09:28;;;;;;;;;;;16.00;99.90;;;;;;5056142;28;20000;-81
2022/07/23 02:11:53;;;;;;;;;;;16.00;99.90;;;;;;5055730;28;19947;-81
2022/07/23 02:14:19;;;;;;;;;;;15.90;99.90;;;;;;5055634;28;20385;-77
2022/07/23 02:16:45;;;;;;;;;;;15.90;99.90;;;;;;5054300;28;19913;-79
2022/07/23 02:19:10;;;;;;;;;;;15.90;99.90;;;;;;5055090;28;19915;-77
2022/07/23 02:21:36;;;;;;;;;;;15.90;99.90;;;;;;5054922;28;19916;-79
2022/07/23 02:24:02;;;;;;;;;;;15.90;99.90;;;;;;5055572;28;20373;-78
2022/07/23 02:26:27;;;;;;;;;;;16.00;99.90;;;;;;5056062;28;19916;-77
2022/07/23 02:28:53;;;;;;;;;;;16.00;99.90;;;;;;5055452;28;19908;-79
2022/07/23 02:31:18;;;;;;;;;;;16.00;99.90;;;;;;5055655;28;19909;-77
2022/07/23 02:33:44;;;;;;;;;;;15.80;99.90;;;;;;5055264;28;20054;-76
2022/07/23 02:36:10;;;;;;;;;;;15.50;99.90;;;;;;5055266;28;19913;-79
2022/07/23 02:38:35;;;;;;;;;;;15.40;99.90;;;;;;5053916;28;20026;-78
2022/07/23 02:41:01;;;;;;;;;;;15.10;99.90;;;;;;5055381;28;19919;-76
2022/07/23 02:43:26;;;;;;;;;;;15.00;99.90;;;;;;5075251;28;19946;-77
2022/07/23 02:45:52;;;;;;;;;;;15.30;99.90;;;;;;5074984;28;19913;-78
2022/07/23 02:48:17;;;;;;;;;;;15.50;99.90;;;;;;5075422;28;19915;-83
2022/07/23 02:50:43;;;;;;;;;;;15.50;99.90;;;;;;5075213;28;20357;-78
2022/07/23 02:53:09;;;;;;;;;;;15.50;99.90;;;;;;5074878;28;19909;-81
2022/07/23 02:55:34;;;;;;;;;;;15.50;99.90;;;;;;5074863;28;19978;-80
2022/07/23 02:58:00;;;;;;;;;;;15.60;99.90;;;;;;5075058;28;19915;-80
2022/07/23 03:00:25;;;;;;;;;;;15.50;99.90;;;;;;5074509;28;19947;-77
2022/07/23 03:02:51;;;;;;;;;;;15.50;99.90;;;;;;5074881;28;19934;-80
2022/07/23 03:05:17;;;;;;;;;;;15.60;99.90;;;;;;5074604;28;19916;-80
2022/07/23 03:07:42;;;;;;;;;;;15.60;99.90;;;;;;5074665;28;19920;-80
2022/07/23 03:10:08;;;;;;;;;;;15.50;99.90;;;;;;5074545;28;20293;-79
2022/07/23 03:12:34;;;;;;;;;;;15.40;99.90;;;;;;5074534;28;19908;-80
2022/07/23 03:14:59;;;;;;;;;;;15.20;99.90;;;;;;5074724;28;19912;-80
2022/07/23 03:17:25;;;;;;;;;;;15.20;99.90;;;;;;5074588;28;19912;-79
2022/07/23 03:19:50;;;;;;;;;;;15.30;99.90;;;;;;5074395;28;19908;-80
2022/07/23 03:22:16;;;;;;;;;;;15.30;99.90;;;;;;5074361;28;19986;-77
2022/07/23 03:24:53;;;;;;;;;;;15.30;99.90;;;;;;5074388;28;20276;-79
2022/07/23 03:27:19;;;;;;;;;;;15.30;99.90;;;;;;5075156;28;19908;-81
2022/07/23 03:29:45;;;;;;;;;;;15.30;99.90;;;;;;5074188;28;19908;-79
2022/07/23 03:32:10;;;;;;;;;;;15.30;99.90;;;;;;5073878;28;20307;-77
2022/07/23 03:34:36;;;;;;;;;;;15.40;99.90;;;;;;5074483;28;20288;-81
2022/07/23 03:37:02;;;;;;;;;;;15.30;99.90;;;;;;5074095;28;19951;-82
2022/07/23 03:39:27;;;;;;;;;;;15.20;99.90;;;;;;5074261;28;19915;-81
2022/07/23 03:41:53;;;;;;;;;;;15.20;99.90;;;;;;5074161;28;19966;-83
2022/07/23 03:44:19;;;;;;;;;;;15.20;99.90;;;;;;5074017;28;19909;-81
2022/07/23 03:46:44;;;;;;;;;;;15.20;99.90;;;;;;5073937;28;19908;-82
2022/07/23 03:49:10;;;;;;;;;;;15.20;99.90;;;;;;5074276;28;19915;-83
2022/07/23 03:51:35;;;;;;;;;;;15.20;99.90;;;;;;5073838;28;19931;-81
2022/07/23 03:54:01;;;;;;;;;;;15.10;99.90;;;;;;5073856;28;19919;-83
2022/07/23 03:56:26;;;;;;;;;;;15.10;99.90;;;;;;5073758;28;19926;-83
2022/07/23 03:58:52;;;;;;;;;;;15.00;99.90;;;;;;5074078;28;20362;-82
2022/07/23 04:01:17;;;;;;;;;;;14.80;99.90;;;;;;5073774;28;19995;-83
2022/07/23 04:03:43;;;;;;;;;;;14.90;99.90;;;;;;5073780;28;19923;-81
2022/07/23 04:06:10;;;;;;;;;;;14.90;99.90;;;;;;5073751;28;19913;-81
2022/07/23 04:08:35;;;;;;;;;;;14.90;99.90;;;;;;5073749;28;19958;-82
2022/07/23 04:11:01;;;;;;;;;;;14.90;99.90;;;;;;5055667;28;20288;-82
2022/07/23 04:13:26;;;;;;;;;;;14.80;99.90;;;;;;5074069;28;19909;-79
2022/07/23 04:15:52;;;;;;;;;;;14.70;99.90;;;;;;5073583;28;19916;-80
2022/07/23 04:18:18;;;;;;;;;;;14.60;99.90;;;;;;5055623;28;20376;-82
2022/07/23 04:20:44;;;;;;;;;;;14.70;99.90;;;;;;5073580;28;19998;-83
2022/07/23 04:23:09;;;;;;;;;;;14.80;99.90;;;;;;5073732;28;20327;-82
2022/07/23 04:25:35;;;;;;;;;;;14.70;99.90;;;;;;5074177;28;19908;-80
2022/07/23 04:28:01;;;;;;;;;;;14.60;99.90;;;;;;5073699;28;19913;-83
2022/07/23 04:30:26;;;;;;;;;;;14.30;99.90;;;;;;5073434;28;19908;-81
2022/07/23 04:32:52;;;;;;;;;;;14.20;99.90;;;;;;5073352;28;20373;-84
2022/07/23 04:35:18;;;;;;;;;;;14.20;99.90;;;;;;5073353;28;20372;-82
2022/07/23 04:37:43;;;;;;;;;;;14.30;99.90;;;;;;5073558;28;19909;-83
2022/07/23 04:40:09;;;;;;;;;;;14.40;99.90;;;;;;5073381;28;19908;-84
2022/07/23 04:42:35;;;;;;;;;;;14.60;99.90;;;;;;5073139;28;20312;-83
2022/07/23 04:45:00;;;;;;;;;;;14.70;99.90;;;;;;5077185;28;20003;-83
2022/07/23 04:47:26;;;;;;;;;;;14.80;99.90;;;;;;5077302;28;19958;-79
2022/07/23 04:49:51;;;;;;;;;;;14.70;99.90;;;;;;5077507;28;19931;-81
2022/07/23 04:52:17;;;;;;;;;;;14.30;99.90;;;;;;5077324;28;19913;-81
2022/07/23 04:54:42;;;;;;;;;;;14.30;99.90;;;;;;5077187;28;19916;-80
2022/07/23 04:57:08;;;;;;;;;;;14.20;99.90;;;;;;5077193;28;19916;-81
2022/07/23 04:59:34;;;;;;;;;;;14.40;99.90;;;;;;5077156;28;20288;-84
2022/07/23 05:01:59;;;;;;;;;;;14.60;99.90;;;;;;5077034;28;19958;-82
2022/07/23 05:04:25;;;;;;;;;;;14.70;99.90;;;;;;5077114;28;20003;-81
2022/07/23 05:06:50;;;;;;;;;;;14.70;99.90;;;;;;5076914;28;20385;-84
2022/07/23 05:09:16;;;;;;;;;;;14.80;99.90;;;;;;5077043;28;19913;-81
2022/07/23 05:11:41;;;;;;;;;;;15.00;99.90;;;;;;5077493;28;19913;-80
2022/07/23 05:14:07;;;;;;;;;;;15.10;99.90;;;;;;5076808;28;19909;-82
2022/07/23 05:16:32;;;;;;;;;;;15.00;99.90;;;;;;5076756;28;19921;-82
2022/07/23 05:18:58;;;;;;;;;;;15.00;99.90;;;;;;5077018;28;19931;-84
2022/07/23 05:21:23;;;;;;;;;;;15.00;99.90;;;;;;5076776;28;19998;-83
2022/07/23 05:23:49;;;;;;;;;;;15.00;99.90;;;;;;5076852;28;19908;-82
2022/07/23 05:26:15;;;;;;;;;;;14.90;99.90;;;;;;5077183;28;19973;-80
2022/07/23 05:28:40;;;;;;;;;;;14.60;99.90;;;;;;5076539;28;19912;-81
2022/07/23 05:31:06;;;;;;;;;;;14.80;99.90;;;;;;5076538;28;19908;-81
2022/07/23 05:33:31;;;;;;;;;;;14.90;99.90;;;;;;5076492;28;19995;-83
2022/07/23 05:36:02;;;;;;;;;;;15.10;99.90;;;;;;5076543;28;20357;-80
2022/07/23 05:38:27;;;;;;;;;;;15.20;99.90;;;;;;5076370;28;19915;-82
2022/07/23 05:40:53;;;;;;;;;;;15.30;99.90;;;;;;5076606;28;19916;-81
2022/07/23 05:43:18;;;;;;;;;;;15.30;99.90;;;;;;5075843;28;20018;-81
2022/07/23 05:45:44;;;;;;;;;;;15.40;99.90;;;;;;5076282;28;19915;-80
2022/07/23 05:48:09;;;;;;;;;;;15.50;99.90;;;;;;5076164;28;19931;-82
2022/07/23 05:50:35;;;;;;;;;;;15.50;99.90;;;;;;5076563;28;20000;-81
2022/07/23 05:53:01;;;;;;;;;;;15.60;99.90;;;;;;5076229;28;19917;-82
2022/07/23 05:55:28;;;;;;;;;;;15.70;99.90;;;;;;5075830;28;19913;-83
2022/07/23 05:57:55;;;;;;;;;;;15.80;99.90;;;;;;5058059;28;20384;-83
2022/07/23 06:00:20;;;;;;;;;;;15.90;99.90;;;;;;5076439;28;19908;-81
2022/07/23 06:02:46;;;;;;;;;;;16.00;99.90;;;;;;5076201;28;19957;-80
2022/07/23 06:05:12;;;;;;;;;;;16.10;99.90;;;;;;5076008;28;19909;-80
2022/07/23 06:07:37;;;;;;;;;;;16.20;99.90;;;;;;5075874;28;19908;-82
2022/07/23 06:10:03;;;;;;;;;;;16.20;99.90;;;;;;5075919;28;19991;-83
2022/07/23 06:12:29;;;;;;;;;;;16.50;99.90;;;;;;5075841;28;19959;-81
2022/07/23 06:14:55;;;;;;;;;;;16.50;99.90;;;;;;5076044;28;20001;-83
2022/07/23 06:17:20;;;;;;;;;;;16.40;99.90;;;;;;5075678;28;19995;-82
2022/07/23 06:19:46;;;;;;;;;;;16.50;99.90;;;;;;5075630;28;19908;-82
2022/07/23 06:22:11;;;;;;;;;;;16.40;99.90;;;;;;5075593;28;19909;-82
2022/07/23 06:24:37;;;;;;;;;;;16.50;99.90;;;;;;5075521;28;19909;-80
2022/07/23 06:27:03;;;;;;;;;;;16.50;99.90;;;;;;5075991;28;19916;-81
2022/07/23 06:29:28;;;;;;;;;;;16.60;99.90;;;;;;5075612;28;19909;-81
2022/07/23 06:31:54;;;;;;;;;;;16.50;99.90;;;;;;5075491;28;20023;-82
2022/07/23 06:34:20;;;;;;;;;;;16.50;99.90;;;;;;5075759;28;19908;-82
2022/07/23 06:36:45;;;;;;;;;;;16.60;99.90;;;;;;5075257;28;19909;-83
2022/07/23 06:39:11;;;;;;;;;;;16.70;99.90;;;;;;5075453;28;19977;-81
2022/07/23 06:41:36;;;;;;;;;;;16.90;99.90;;;;;;5074838;28;19917;-81
2022/07/23 06:44:02;;;;;;;;;;;17.20;99.90;;;;;;5075242;28;19912;-82
2022/07/23 06:46:28;;;;;;;;;;;17.20;99.90;;;;;;5075150;28;19966;-82
2022/07/23 06:48:53;;;;;;;;;;;17.10;99.90;;;;;;5075030;28;19916;-82
2022/07/23 06:51:19;;;;;;;;;;;17.30;99.90;;;;;;5075084;28;20007;-82
2022/07/23 06:53:44;;;;;;;;;;;17.60;99.90;;;;;;5074976;28;20285;-84
2022/07/23 06:56:10;;;;;;;;;;;17.80;99.90;;;;;;5075269;28;19919;-82
2022/07/23 06:58:36;;;;;;;;;;;17.90;99.90;;;;;;5074831;28;19909;-82
2022/07/23 07:01:01;;;;;;;;;;;17.90;99.90;;;;;;5074826;28;19912;-83
2022/07/23 07:03:27;;;;;;;;;;;18.00;99.90;;;;;;5074761;28;20319;-83
2022/07/23 07:05:53;;;;;;;;;;;18.20;99.90;;;;;;5074376;28;19921;-84
2022/07/23 07:08:18;;;;;;;;;;;18.50;99.90;;;;;;5074678;28;20287;-83
2022/07/23 07:10:44;;;;;;;;;;;18.50;99.90;;;;;;5074639;28;19996;-81
2022/07/23 07:13:10;;;;;;;;;;;18.60;99.90;;;;;;5074592;28;20414;-81
2022/07/23 07:15:35;;;;;;;;;;;18.60;99.90;;;;;;5074990;28;19941;-82
2022/07/23 07:18:01;;;;;;;;;;;18.70;99.90;;;;;;5074888;28;19916;-81
2022/07/23 07:20:26;;;;;;;;;;;18.70;99.90;;;;;;5074690;28;20392;-81
2022/07/23 07:22:52;;;;;;;;;;;18.90;99.90;;;;;;5074508;28;19908;-81
2022/07/23 07:25:17;;;;;;;;;;;19.00;99.90;;;;;;5074408;28;19995;-82
2022/07/23 07:27:43;;;;;;;;;;;19.30;99.90;;;;;;5074850;28;20356;-81
2022/07/23 07:30:09;;;;;;;;;;;19.40;99.90;;;;;;5074556;28;19952;-80
2022/07/23 07:32:36;;;;;;;;;;;20.90;99.90;;;;;;5074264;28;19909;-84
2022/07/23 07:35:05;;;;;;;;;;;23.80;99.90;;;;;;5074112;28;19971;-79
2022/07/23 07:37:31;;;;;;;;;;;25.70;99.90;;;;;;5074097;28;19908;-78
2022/07/23 07:39:56;;;;;;;;;;;26.70;93.10;;;;;;5074025;28;20046;-79
2022/07/23 07:42:22;;;;;;;;;;;27.90;92.00;;;;;;5073776;28;19970;-82
2022/07/23 07:44:47;;;;;;;;;;;28.30;90.70;;;;;;5073948;28;19908;-78
2022/07/23 07:47:15;;;;;;;;;;;28.70;81.60;;;;;;5056114;28;20395;-83
2022/07/23 07:49:41;;;;;;;;;;;28.70;81.70;;;;;;5073903;28;19908;-79
2022/07/23 07:52:06;;;;;;;;;;;27.40;81.80;;;;;;5073939;28;19909;-80
2022/07/23 07:54:32;;;;;;;;;;;27.40;84.70;;;;;;5074058;28;19953;-80
2022/07/23 07:56:57;;;;;;;;;;;27.40;85.20;;;;;;5073978;28;20327;-82
2022/07/23 07:59:23;;;;;;;;;;;27.70;84.80;;;;;;5073737;28;19912;-81
2022/07/23 08:01:49;;;;;;;;;;;27.20;84.10;;;;;;5073745;28;20009;-81
2022/07/23 08:04:14;;;;;;;;;;;25.80;88.80;;;;;;5074068;28;19908;-82
2022/07/23 08:06:40;;;;;;;;;;;25.70;92.00;;;;;;5073840;28;20331;-79
2022/07/23 08:09:05;;;;;;;;;;;26.30;90.70;;;;;;5073625;28;20033;-82
2022/07/23 08:11:31;;;;;;;;;;;26.40;88.10;;;;;;5073764;28;19908;-79
2022/07/23 08:13:56;;;;;;;;;;;25.20;90.80;;;;;;5073589;28;19908;-79
2022/07/23 08:16:22;;;;;;;;;;;24.50;93.60;;;;;;5073540;28;20281;-81
2022/07/23 08:18:47;;;;;;;;;;;24.20;94.30;;;;;;5073842;28;19935;-80
2022/07/23 08:21:13;;;;;;;;;;;23.80;95.90;;;;;;5073647;28;20403;-80
2022/07/23 08:23:39;;;;;;;;;;;23.50;96.50;;;;;;5073495;28;20038;-79
2022/07/23 08:26:04;;;;;;;;;;;23.50;97.60;;;;;;5073843;28;19919;-80
2022/07/23 08:28:32;;;;;;;;;;;25.00;96.70;;;;;;5074001;28;19908;-82
2022/07/23 08:30:58;;;;;;;;;;;26.10;90.60;;;;;;5073638;28;19915;-81
2022/07/23 08:33:24;;;;;;;;;;;26.30;85.70;;;;;;5073459;28;19909;-79
2022/07/23 08:35:52;;;;;;;;;;;27.00;86.00;;;;;;5073506;28;20277;-80
2022/07/23 08:38:19;;;;;;;;;;;27.60;81.30;;;;;;5073344;28;19909;-82
2022/07/23 08:40:47;;;;;;;;;;;27.60;77.20;;;;;;5073457;28;19952;-83
2022/07/23 08:43:14;;;;;;;;;;;27.60;78.20;;;;;;5072952;28;19921;-81
2022/07/23 08:45:44;;;;;;;;;;;27.40;76.20;;;;;;5073299;28;19940;-78
2022/07/23 08:48:20;;;;;;;;;;;27.70;77.90;;;;;;5073430;28;19960;-83
2022/07/23 08:50:49;;;;;;;;;;;27.90;73.20;;;;;;5073386;28;19908;-80
2022/07/23 08:53:16;;;;;;;;;;;27.50;75.60;;;;;;5073242;28;20368;-82
2022/07/23 08:55:45;;;;;;;;;;;28.10;74.90;;;;;;5073533;28;19919;-79
2022/07/23 08:58:11;;;;;;;;;;;27.50;72.30;;;;;;5073507;28;19908;-78
2022/07/23 09:00:37;;;;;;;;;;;26.30;74.00;;;;;;5073149;28;19919;-82
2022/07/23 09:03:02;;;;;;;;;;;26.50;76.00;;;;;;5073229;28;20461;-82
2022/07/23 09:05:28;;;;;;;;;;;27.40;73.10;;;;;;5073167;28;19908;-82
2022/07/23 09:08:08;;;;;;;;;;;27.90;70.90;;;;;;5073063;28;19946;-80
2022/07/23 09:10:50;;;;;;;;;;;28.30;70.60;;;;;;5073142;28;20045;-81
2022/07/23 09:13:35;;;;;;;;;;;29.10;69.50;;;;;;5073007;28;19931;-82
2022/07/23 09:16:06;;;;;;;;;;;28.20;66.90;;;;;;5073399;28;19920;-81
2022/07/23 09:18:39;;;;;;;;;;;29.20;68.40;;;;;;5073039;28;19912;-80
2022/07/23 09:21:09;;;;;;;;;;;29.70;66.00;;;;;;5073353;28;19999;-83
2022/07/23 09:23:39;;;;;;;;;;;30.30;64.90;;;;;;5072910;28;20004;-79
2022/07/23 09:26:22;;;;;;;;;;;30.60;63.40;;;;;;5072919;28;19908;-81
2022/07/23 09:28:55;;;;;;;;;;;31.00;62.60;;;;;;5073380;28;19970;-83
2022/07/23 09:31:21;;;;;;;;;;;30.80;60.40;;;;;;5076575;28;19909;-80
2022/07/23 09:33:47;;;;;;;;;;;31.40;60.70;;;;;;5076482;28;19908;-80
2022/07/23 09:36:13;;;;;;;;;;;31.70;59.60;;;;;;5058227;28;19917;-84
2022/07/23 09:38:48;;;;;;;;;;;31.80;59.50;;;;;;5076449;28;19947;-81
2022/07/23 09:41:14;;;;;;;;;;;31.70;59.90;;;;;;5076370;28;20347;-80
2022/07/23 09:43:40;;;;;;;;;;;32.00;58.90;;;;;;5076481;28;19913;-84
2022/07/23 09:46:24;;;;;;;;;;;32.50;57.70;;;;;;5076271;28;19971;-80
2022/07/23 09:48:53;;;;;;;;;;;32.60;57.40;;;;;;5075571;28;20326;-84
2022/07/23 09:53:50;;;;;;;;;;;32.00;54.60;;;;;;5076187;28;20384;-83
2022/07/23 09:56:16;;;;;;;;;;;31.10;55.50;;;;;;5076242;28;20007;-82
2022/07/23 09:58:52;;;;;;;;;;;31.30;55.40;;;;;;5076089;28;19908;-83
2022/07/23 10:01:19;;;;;;;;;;;30.60;56.50;;;;;;5076173;28;19909;-79
2022/07/23 10:03:44;;;;;;;;;;;31.00;56.40;;;;;;5075972;28;19995;-84
2022/07/23 10:06:12;;;;;;;;;;;31.20;56.50;;;;;;5075939;28;19959;-82
2022/07/23 10:08:40;;;;;;;;;;;31.50;55.60;;;;;;5076097;28;19974;-79
2022/07/23 10:11:06;;;;;;;;;;;33.10;55.10;;;;;;5075865;28;19908;-82
2022/07/23 10:16:12;;;;;;;;;;;36.50;82.20;;;;;;5075695;28;19934;-82
2022/07/23 10:18:38;;;;;;;;;;;36.60;78.50;;;;;;5076070;28;19909;-82
2022/07/23 10:21:06;;;;;;;;;;;37.40;76.70;;;;;;5075700;28;19912;-80
2022/07/23 10:23:44;;;;;;;;;;;38.70;71.50;;;;;;5075664;28;19915;-83
2022/07/23 10:26:13;;;;;;;;;;;39.40;70.40;;;;;;5075410;28;19908;-85
2022/07/23 10:28:45;;;;;;;;;;;40.30;64.70;;;;;;5076401;28;20402;-82
2022/07/23 10:31:10;;;;;;;;;;;39.60;43.50;;;;;;5075731;28;19915;-86
2022/07/23 10:33:55;;;;;;;;;;;39.70;44.40;;;;;;5075403;28;19909;-85
2022/07/23 10:36:23;;;;;;;;;;;40.80;43.60;;;;;;5075214;28;19912;-82
2022/07/23 10:38:58;;;;;;;;;;;41.70;43.70;;;;;;5075277;28;19909;-84
2022/07/23 10:41:30;;;;;;;;;;;41.30;44.50;;;;;;5052779;28;20293;-82
2022/07/23 10:44:09;;;;;;;;;;;37.80;42.40;;;;;;5055300;28;20309;-84
2022/07/23 10:46:44;;;;;;;;;;;39.50;42.70;;;;;;5055562;28;20381;-83
2022/07/23 10:49:25;;;;;;;;;;;41.70;40.60;;;;;;5055229;28;19909;-83
2022/07/23 10:52:17;;;;;;;;;;;42.70;40.50;;;;;;5055048;28;20071;-82
2022/07/23 10:54:57;;;;;;;;;;;42.30;39.30;;;;;;5050996;28;19909;-81
2022/07/23 10:57:26;;;;;;;;;;;40.50;39.10;;;;;;5055219;28;19909;-84
2022/07/23 11:00:01;;;;;;;;;;;40.60;39.80;;;;;;5055031;28;19908;-80
2022/07/23 11:02:28;;;;;;;;;;;41.10;38.90;;;;;;5054901;28;20284;-83
2022/07/23 11:04:53;;;;;;;;;;;40.70;39.40;;;;;;5054898;28;19913;-80
2022/07/23 11:07:19;;;;;;;;;;;41.00;39.20;;;;;;5054982;28;19916;-81
2022/07/23 11:09:47;;;;;;;;;;;41.60;38.60;;;;;;5054984;28;19909;-81
2022/07/23 11:12:12;;;;;;;;;;;41.80;38.70;;;;;;5053433;28;19909;-82
2022/07/23 11:15:13;;;;;;;;;;;42.90;38.70;;;;;;5054679;28;19915;-84
2022/07/23 11:17:59;;;;;;;;;;;44.20;38.20;;;;;;4973998;28;19953;-84
2022/07/23 11:20:26;;;;;;;;;;;43.80;36.80;;;;;;5048812;28;20022;-84
2022/07/23 11:22:54;;;;;;;;;;;40.40;37.70;;;;;;5054538;28;19920;-84
2022/07/23 11:25:23;;;;;;;;;;;40.00;39.30;;;;;;5054509;28;19908;-85
2022/07/23 11:27:49;;;;;;;;;;;40.70;39.20;;;;;;5054989;28;19982;-84
2022/07/23 11:30:27;;;;;;;;;;;40.70;39.10;;;;;;5054427;28;20336;-83
2022/07/23 11:32:53;;;;;;;;;;;40.50;39.40;;;;;;5052936;28;19916;-84
2022/07/23 11:35:24;;;;;;;;;;;41.70;39.00;;;;;;5054411;28;19912;-83
2022/07/23 11:37:53;;;;;;;;;;;41.10;39.30;;;;;;5054368;28;19995;-83
2022/07/23 11:40:19;;;;;;;;;;;41.40;39.20;;;;;;5054014;28;19908;-83
2022/07/23 11:42:54;;;;;;;;;;;39.30;39.00;;;;;;5068464;28;19921;-84
2022/07/23 11:45:20;;;;;;;;;;;38.70;39.50;;;;;;5074252;28;19912;-81
2022/07/23 11:47:46;;;;;;;;;;;37.20;39.70;;;;;;5074056;28;19955;-83
2022/07/23 11:50:11;;;;;;;;;;;36.70;40.00;;;;;;5073912;28;19915;-83
2022/07/23 11:52:38;;;;;;;;;;;38.10;39.80;;;;;;5073845;28;19999;-83
2022/07/23 11:55:05;;;;;;;;;;;40.30;38.70;;;;;;5073789;28;19917;-83
2022/07/23 11:57:40;;;;;;;;;;;41.20;37.90;;;;;;5074287;28;19915;-83
2022/07/23 12:00:07;;;;;;;;;;;42.10;37.10;;;;;;5074001;28;19909;-83
2022/07/23 12:02:32;;;;;;;;;;;42.20;36.40;;;;;;5074103;28;19951;-83
2022/07/23 12:04:58;;;;;;;;;;;41.20;36.80;;;;;;5073718;28;19923;-82
2022/07/23 12:07:37;;;;;;;;;;;39.90;37.70;;;;;;5073753;28;19912;-85
2022/07/23 12:10:22;;;;;;;;;;;39.90;37.40;;;;;;5073698;28;19909;-82
2022/07/23 12:12:52;;;;;;;;;;;41.80;37.10;;;;;;5073696;28;19916;-83
2022/07/23 12:15:18;;;;;;;;;;;39.90;36.40;;;;;;5074043;28;19912;-83
2022/07/23 12:17:45;;;;;;;;;;;41.50;37.00;;;;;;5055557;28;19912;-84
2022/07/23 12:20:16;;;;;;;;;;;42.00;36.50;;;;;;5073634;28;19991;-82
2022/07/23 12:22:43;;;;;;;;;;;43.10;36.10;;;;;;5073844;28;19908;-85
2022/07/23 12:25:16;;;;;;;;;;;44.00;35.80;;;;;;5073526;28;19961;-84
2022/07/23 12:27:42;;;;;;;;;;;42.90;35.90;;;;;;5074292;28;19908;-85
2022/07/23 12:30:15;;;;;;;;;;;42.30;36.30;;;;;;5073456;28;19915;-85
2022/07/23 12:32:43;;;;;;;;;;;42.70;36.20;;;;;;5073356;28;19958;-83
2022/07/23 12:35:08;;;;;;;;;;;42.20;36.20;;;;;;5073349;28;19912;-82
2022/07/23 12:37:38;;;;;;;;;;;41.20;37.30;;;;;;5073419;28;20287;-83
2022/07/23 12:40:22;;;;;;;;;;;41.80;36.70;;;;;;5073345;28;19912;-82
2022/07/23 12:42:48;;;;;;;;;;;40.80;37.20;;;;;;5073124;28;19931;-82
2022/07/23 12:45:14;;;;;;;;;;;39.70;37.80;;;;;;5073379;28;19934;-82
2022/07/23 12:47:58;;;;;;;;;;;40.20;38.40;;;;;;5073248;28;19909;-84
2022/07/23 12:50:33;;;;;;;;;;;41.90;37.50;;;;;;5073490;28;19928;-83
2022/07/23 12:53:03;;;;;;;;;;;41.20;37.90;;;;;;5073291;28;19908;-81
2022/07/23 12:55:29;;;;;;;;;;;41.80;37.60;;;;;;5073672;28;19912;-83
2022/07/23 12:58:02;;;;;;;;;;;40.50;38.20;;;;;;5073203;28;19909;-82
2022/07/23 13:00:28;;;;;;;;;;;40.90;37.70;;;;;;5073432;28;20349;-82
2022/07/23 13:02:53;;;;;;;;;;;39.90;37.60;;;;;;5073492;28;19959;-83
2022/07/23 13:05:19;;;;;;;;;;;38.30;39.30;;;;;;5075680;28;19909;-84
2022/07/23 13:07:44;;;;;;;;;;;38.40;39.50;;;;;;5059017;28;19940;-81
2022/07/23 13:10:12;;;;;;;;;;;39.40;39.60;;;;;;5077356;28;19915;-83
2022/07/23 13:12:37;;;;;;;;;;;39.20;38.90;;;;;;5077074;28;19908;-81
2022/07/23 13:15:03;;;;;;;;;;;39.80;38.90;;;;;;5076825;28;20416;-83
2022/07/23 13:17:29;;;;;;;;;;;38.00;38.50;;;;;;5076841;28;19999;-84
2022/07/23 13:19:54;;;;;;;;;;;38.50;39.20;;;;;;5076752;28;19909;-81
2022/07/23 13:22:20;;;;;;;;;;;38.20;39.70;;;;;;5076791;28;19916;-83
2022/07/23 13:24:45;;;;;;;;;;;37.70;39.70;;;;;;5076999;28;20327;-83
2022/07/23 13:27:11;;;;;;;;;;;37.40;40.30;;;;;;5077540;28;19950;-83
2022/07/23 13:29:36;;;;;;;;;;;37.30;40.20;;;;;;5076508;28;19908;-81
2022/07/23 13:32:02;;;;;;;;;;;37.10;41.10;;;;;;5058586;28;19912;-83
2022/07/23 13:34:28;;;;;;;;;;;38.40;39.40;;;;;;5076611;28;19912;-82
2022/07/23 13:36:53;;;;;;;;;;;39.60;39.10;;;;;;5076593;28;19917;-82
2022/07/23 13:39:19;;;;;;;;;;;39.70;39.10;;;;;;5076473;28;19987;-84
2022/07/23 13:41:44;;;;;;;;;;;37.80;39.90;;;;;;5076164;28;20000;-82
2022/07/23 13:44:10;;;;;;;;;;;36.60;40.20;;;;;;5058361;28;19909;-82
2022/07/23 13:46:36;;;;;;;;;;;36.40;40.90;;;;;;5076361;28;19954;-84
2022/07/23 13:49:01;;;;;;;;;;;37.40;40.70;;;;;;5076299;28;19916;-81
2022/07/23 13:51:27;;;;;;;;;;;38.40;39.80;;;;;;5076782;28;19931;-82
2022/07/23 13:53:53;;;;;;;;;;;38.90;38.80;;;;;;5076168;28;19947;-83
2022/07/23 13:56:18;;;;;;;;;;;38.10;39.90;;;;;;5076013;28;20292;-83
2022/07/23 13:58:44;;;;;;;;;;;36.90;40.50;;;;;;5076045;28;19925;-83
2022/07/23 14:01:09;;;;;;;;;;;36.60;40.80;;;;;;5075974;28;19909;-83
2022/07/23 14:03:35;;;;;;;;;;;37.00;41.10;;;;;;5076115;28;20326;-83
2022/07/23 14:06:01;;;;;;;;;;;37.50;40.70;;;;;;5075961;28;19908;-83
2022/07/23 14:08:26;;;;;;;;;;;37.10;40.80;;;;;;5076209;28;20283;-83
2022/07/23 14:10:52;;;;;;;;;;;37.50;40.40;;;;;;5076062;28;19908;-81
2022/07/23 14:13:17;;;;;;;;;;;38.10;40.40;;;;;;5076032;28;19915;-83
2022/07/23 14:15:43;;;;;;;;;;;39.20;39.80;;;;;;5075621;28;19922;-82
2022/07/23 14:18:08;;;;;;;;;;;39.80;39.10;;;;;;5075765;28;19916;-82
2022/07/23 14:20:34;;;;;;;;;;;39.70;39.50;;;;;;5075690;28;19909;-83